sensor_id;sensor_type;location;lat;lon;timestamp;P1;durP1;ratioP1;P2;durP2;ratioP2
72406;SDS011;60396;47.550;18.828;2023-02-01T00:01:11;8.55;;;1.70;;
72406;SDS011;60396;47.550;18.828;2023-02-01T00:03:39;4.80;;;1.48;;
72406;SDS011;60396;47.550;18.828;2023-02-01T00:06:07;10.30;;;2.00;;
72406;SDS011;60396;47.550;18.828;2023-02-01T00:08:34;10.93;;;3.20;;
72406;SDS011;60396;47.550;18.828;2023-02-01T00:11:03;15.05;;;4.93;;
72406;SDS011;60396;47.550;18.828;2023-02-01T00:13:36;10.82;;;3.70;;
72406;SDS011;60396;47.550;18.828;2023-02-01T00:16:12;10.13;;;3.35;;
72406;SDS011;60396;47.550;18.828;2023-02-01T00:18:49;6.75;;;1.75;;
72406;SDS011;60396;47.550;18.828;2023-02-01T00:21:18;9.73;;;2.00;;
72406;SDS011;60396;47.550;18.828;2023-02-01T00:23:47;7.62;;;1.92;;
72406;SDS011;60396;47.550;18.828;2023-02-01T00:26:34;8.88;;;2.65;;
72406;SDS011;60396;47.550;18.828;2023-02-01T00:29:05;9.02;;;3.12;;
72406;SDS011;60396;47.550;18.828;2023-02-01T00:31:33;9.18;;;3.12;;
72406;SDS011;60396;47.550;18.828;2023-02-01T00:34:02;14.97;;;4.97;;
72406;SDS011;60396;47.550;18.828;2023-02-01T00:36:30;16.30;;;4.40;;
72406;SDS011;60396;47.550;18.828;2023-02-01T00:38:58;11.68;;;3.58;;
72406;SDS011;60396;47.550;18.828;2023-02-01T00:41:26;10.65;;;4.00;;
72406;SDS011;60396;47.550;18.828;2023-02-01T00:43:54;8.43;;;2.67;;
72406;SDS011;60396;47.550;18.828;2023-02-01T00:46:22;6.13;;;2.40;;
72406;SDS011;60396;47.550;18.828;2023-02-01T00:48:49;6.70;;;1.80;;
72406;SDS011;60396;47.550;18.828;2023-02-01T00:51:19;6.07;;;1.83;;
72406;SDS011;60396;47.550;18.828;2023-02-01T00:53:49;6.90;;;2.03;;
72406;SDS011;60396;47.550;18.828;2023-02-01T00:56:17;5.57;;;1.67;;
72406;SDS011;60396;47.550;18.828;2023-02-01T00:58:45;6.60;;;1.97;;
72406;SDS011;60396;47.550;18.828;2023-02-01T01:01:14;6.85;;;1.70;;
72406;SDS011;60396;47.550;18.828;2023-02-01T01:03:48;4.62;;;1.30;;
72406;SDS011;60396;47.550;18.828;2023-02-01T01:06:20;7.00;;;2.00;;
72406;SDS011;60396;47.550;18.828;2023-02-01T01:08:52;6.78;;;2.12;;
72406;SDS011;60396;47.550;18.828;2023-02-01T01:11:22;6.00;;;1.90;;
72406;SDS011;60396;47.550;18.828;2023-02-01T01:13:52;5.68;;;1.67;;
72406;SDS011;60396;47.550;18.828;2023-02-01T01:16:22;6.35;;;1.92;;
72406;SDS011;60396;47.550;18.828;2023-02-01T01:18:51;6.30;;;1.55;;
72406;SDS011;60396;47.550;18.828;2023-02-01T01:21:19;6.47;;;1.62;;
72406;SDS011;60396;47.550;18.828;2023-02-01T01:23:46;7.13;;;1.87;;
72406;SDS011;60396;47.550;18.828;2023-02-01T01:26:16;7.25;;;1.62;;
72406;SDS011;60396;47.550;18.828;2023-02-01T01:28:48;6.47;;;1.80;;
72406;SDS011;60396;47.550;18.828;2023-02-01T01:31:16;8.45;;;2.00;;
72406;SDS011;60396;47.550;18.828;2023-02-01T01:33:47;6.47;;;1.75;;
72406;SDS011;60396;47.550;18.828;2023-02-01T01:36:16;5.80;;;1.40;;
72406;SDS011;60396;47.550;18.828;2023-02-01T01:38:45;5.85;;;1.70;;
72406;SDS011;60396;47.550;18.828;2023-02-01T01:41:14;5.87;;;1.70;;
72406;SDS011;60396;47.550;18.828;2023-02-01T01:43:53;7.12;;;2.10;;
72406;SDS011;60396;47.550;18.828;2023-02-01T01:46:26;7.03;;;1.73;;
72406;SDS011;60396;47.550;18.828;2023-02-01T01:51:44;7.50;;;1.70;;
72406;SDS011;60396;47.550;18.828;2023-02-01T01:54:16;4.65;;;1.50;;
72406;SDS011;60396;47.550;18.828;2023-02-01T01:56:49;7.60;;;1.58;;
72406;SDS011;60396;47.550;18.828;2023-02-01T01:59:20;5.55;;;1.50;;
72406;SDS011;60396;47.550;18.828;2023-02-01T02:01:48;5.67;;;1.63;;
72406;SDS011;60396;47.550;18.828;2023-02-01T02:04:16;4.70;;;1.55;;
72406;SDS011;60396;47.550;18.828;2023-02-01T02:06:52;9.13;;;1.80;;
72406;SDS011;60396;47.550;18.828;2023-02-01T02:09:24;5.32;;;1.60;;
72406;SDS011;60396;47.550;18.828;2023-02-01T02:11:52;5.95;;;1.80;;
72406;SDS011;60396;47.550;18.828;2023-02-01T02:14:19;5.60;;;1.60;;
72406;SDS011;60396;47.550;18.828;2023-02-01T02:30:36;4.07;;;1.30;;
72406;SDS011;60396;47.550;18.828;2023-02-01T02:36:05;5.47;;;1.80;;
72406;SDS011;60396;47.550;18.828;2023-02-01T02:45:03;4.50;;;1.45;;
72406;SDS011;60396;47.550;18.828;2023-02-01T02:50:46;4.03;;;1.02;;
72406;SDS011;60396;47.550;18.828;2023-02-01T02:56:39;6.50;;;1.57;;
72406;SDS011;60396;47.550;18.828;2023-02-01T02:59:26;5.03;;;1.50;;
72406;SDS011;60396;47.550;18.828;2023-02-01T03:02:14;4.28;;;1.20;;
72406;SDS011;60396;47.550;18.828;2023-02-01T03:05:01;4.15;;;1.30;;
72406;SDS011;60396;47.550;18.828;2023-02-01T03:12:52;5.05;;;1.40;;
72406;SDS011;60396;47.550;18.828;2023-02-01T03:15:26;5.53;;;1.40;;
72406;SDS011;60396;47.550;18.828;2023-02-01T03:17:56;5.50;;;1.20;;
72406;SDS011;60396;47.550;18.828;2023-02-01T03:20:25;5.37;;;1.80;;
72406;SDS011;60396;47.550;18.828;2023-02-01T03:22:53;6.73;;;1.53;;
72406;SDS011;60396;47.550;18.828;2023-02-01T03:25:24;5.32;;;1.40;;
72406;SDS011;60396;47.550;18.828;2023-02-01T03:27:58;4.03;;;1.40;;
72406;SDS011;60396;47.550;18.828;2023-02-01T03:30:33;5.00;;;1.30;;
72406;SDS011;60396;47.550;18.828;2023-02-01T03:33:05;6.00;;;1.40;;
72406;SDS011;60396;47.550;18.828;2023-02-01T03:35:45;3.67;;;1.10;;
72406;SDS011;60396;47.550;18.828;2023-02-01T03:40:58;4.05;;;1.10;;
72406;SDS011;60396;47.550;18.828;2023-02-01T03:43:33;4.00;;;1.08;;
72406;SDS011;60396;47.550;18.828;2023-02-01T03:46:04;4.00;;;1.10;;
72406;SDS011;60396;47.550;18.828;2023-02-01T03:48:35;4.63;;;1.17;;
72406;SDS011;60396;47.550;18.828;2023-02-01T03:51:04;4.12;;;1.10;;
72406;SDS011;60396;47.550;18.828;2023-02-01T03:53:33;4.85;;;1.17;;
72406;SDS011;60396;47.550;18.828;2023-02-01T03:56:05;4.00;;;1.30;;
72406;SDS011;60396;47.550;18.828;2023-02-01T03:58:33;4.28;;;1.20;;
72406;SDS011;60396;47.550;18.828;2023-02-01T04:01:01;4.50;;;1.23;;
72406;SDS011;60396;47.550;18.828;2023-02-01T04:03:30;3.65;;;1.10;;
72406;SDS011;60396;47.550;18.828;2023-02-01T04:05:59;4.32;;;1.12;;
72406;SDS011;60396;47.550;18.828;2023-02-01T04:08:27;4.20;;;1.12;;
72406;SDS011;60396;47.550;18.828;2023-02-01T04:10:55;3.55;;;0.90;;
72406;SDS011;60396;47.550;18.828;2023-02-01T04:13:22;4.07;;;1.00;;
72406;SDS011;60396;47.550;18.828;2023-02-01T04:15:50;6.32;;;1.35;;
72406;SDS011;60396;47.550;18.828;2023-02-01T04:18:17;4.57;;;1.25;;
72406;SDS011;60396;47.550;18.828;2023-02-01T04:20:45;4.28;;;0.98;;
72406;SDS011;60396;47.550;18.828;2023-02-01T04:23:13;4.75;;;1.25;;
72406;SDS011;60396;47.550;18.828;2023-02-01T04:25:42;4.73;;;1.33;;
72406;SDS011;60396;47.550;18.828;2023-02-01T04:28:10;3.50;;;1.02;;
72406;SDS011;60396;47.550;18.828;2023-02-01T04:30:38;3.67;;;1.00;;
72406;SDS011;60396;47.550;18.828;2023-02-01T04:33:06;4.85;;;1.30;;
72406;SDS011;60396;47.550;18.828;2023-02-01T04:35:34;4.20;;;1.17;;
72406;SDS011;60396;47.550;18.828;2023-02-01T04:38:02;3.83;;;1.00;;
72406;SDS011;60396;47.550;18.828;2023-02-01T04:40:30;4.30;;;1.27;;
72406;SDS011;60396;47.550;18.828;2023-02-01T04:42:57;4.20;;;1.15;;
72406;SDS011;60396;47.550;18.828;2023-02-01T04:45:25;4.85;;;1.30;;
72406;SDS011;60396;47.550;18.828;2023-02-01T04:47:52;4.40;;;1.20;;
72406;SDS011;60396;47.550;18.828;2023-02-01T04:50:20;5.60;;;1.37;;
72406;SDS011;60396;47.550;18.828;2023-02-01T04:52:48;4.03;;;1.20;;
72406;SDS011;60396;47.550;18.828;2023-02-01T04:55:16;3.62;;;0.90;;
72406;SDS011;60396;47.550;18.828;2023-02-01T04:57:43;3.95;;;1.33;;
72406;SDS011;60396;47.550;18.828;2023-02-01T05:00:11;3.37;;;0.88;;
72406;SDS011;60396;47.550;18.828;2023-02-01T05:02:40;3.83;;;1.10;;
72406;SDS011;60396;47.550;18.828;2023-02-01T05:05:08;4.30;;;1.17;;
72406;SDS011;60396;47.550;18.828;2023-02-01T05:07:36;4.68;;;1.30;;
72406;SDS011;60396;47.550;18.828;2023-02-01T05:10:04;4.43;;;1.20;;
72406;SDS011;60396;47.550;18.828;2023-02-01T05:12:32;3.90;;;1.10;;
72406;SDS011;60396;47.550;18.828;2023-02-01T05:15:18;3.13;;;0.93;;
72406;SDS011;60396;47.550;18.828;2023-02-01T05:17:46;3.90;;;1.05;;
72406;SDS011;60396;47.550;18.828;2023-02-01T05:20:13;3.72;;;0.90;;
72406;SDS011;60396;47.550;18.828;2023-02-01T05:22:41;5.43;;;1.35;;
72406;SDS011;60396;47.550;18.828;2023-02-01T05:25:09;5.47;;;1.37;;
72406;SDS011;60396;47.550;18.828;2023-02-01T05:27:37;4.43;;;1.10;;
72406;SDS011;60396;47.550;18.828;2023-02-01T05:30:05;5.10;;;1.30;;
72406;SDS011;60396;47.550;18.828;2023-02-01T05:32:34;5.75;;;1.30;;
72406;SDS011;60396;47.550;18.828;2023-02-01T05:35:02;5.15;;;1.42;;
72406;SDS011;60396;47.550;18.828;2023-02-01T05:37:30;4.37;;;1.30;;
72406;SDS011;60396;47.550;18.828;2023-02-01T05:39:57;6.07;;;2.00;;
72406;SDS011;60396;47.550;18.828;2023-02-01T05:42:25;3.37;;;1.05;;
72406;SDS011;60396;47.550;18.828;2023-02-01T05:44:53;4.07;;;1.20;;
72406;SDS011;60396;47.550;18.828;2023-02-01T05:47:20;4.70;;;1.37;;
72406;SDS011;60396;47.550;18.828;2023-02-01T05:49:48;4.18;;;1.27;;
72406;SDS011;60396;47.550;18.828;2023-02-01T05:52:16;4.07;;;1.17;;
72406;SDS011;60396;47.550;18.828;2023-02-01T05:54:46;4.55;;;1.67;;
72406;SDS011;60396;47.550;18.828;2023-02-01T05:57:14;4.12;;;1.23;;
72406;SDS011;60396;47.550;18.828;2023-02-01T05:59:43;4.97;;;1.42;;
72406;SDS011;60396;47.550;18.828;2023-02-01T06:02:12;3.97;;;1.10;;
72406;SDS011;60396;47.550;18.828;2023-02-01T06:04:40;3.93;;;1.10;;
72406;SDS011;60396;47.550;18.828;2023-02-01T06:07:08;5.78;;;1.48;;
72406;SDS011;60396;47.550;18.828;2023-02-01T06:09:37;4.65;;;1.30;;
72406;SDS011;60396;47.550;18.828;2023-02-01T06:12:05;4.37;;;1.10;;
72406;SDS011;60396;47.550;18.828;2023-02-01T06:14:33;4.90;;;1.48;;
72406;SDS011;60396;47.550;18.828;2023-02-01T06:17:00;6.33;;;1.80;;
72406;SDS011;60396;47.550;18.828;2023-02-01T06:19:28;4.20;;;1.20;;
72406;SDS011;60396;47.550;18.828;2023-02-01T06:21:56;5.53;;;1.50;;
72406;SDS011;60396;47.550;18.828;2023-02-01T06:24:24;7.18;;;1.40;;
72406;SDS011;60396;47.550;18.828;2023-02-01T06:26:52;5.20;;;1.25;;
72406;SDS011;60396;47.550;18.828;2023-02-01T06:29:19;5.60;;;1.33;;
72406;SDS011;60396;47.550;18.828;2023-02-01T06:31:47;4.07;;;1.37;;
72406;SDS011;60396;47.550;18.828;2023-02-01T06:34:14;4.43;;;1.10;;
72406;SDS011;60396;47.550;18.828;2023-02-01T06:36:42;5.28;;;1.27;;
72406;SDS011;60396;47.550;18.828;2023-02-01T06:39:10;4.85;;;1.48;;
72406;SDS011;60396;47.550;18.828;2023-02-01T06:41:40;3.97;;;1.27;;
72406;SDS011;60396;47.550;18.828;2023-02-01T06:44:08;4.95;;;1.20;;
72406;SDS011;60396;47.550;18.828;2023-02-01T06:46:35;5.37;;;1.27;;
72406;SDS011;60396;47.550;18.828;2023-02-01T06:49:03;4.57;;;1.30;;
72406;SDS011;60396;47.550;18.828;2023-02-01T06:51:31;4.68;;;1.42;;
72406;SDS011;60396;47.550;18.828;2023-02-01T06:53:59;4.67;;;1.33;;
72406;SDS011;60396;47.550;18.828;2023-02-01T06:56:27;5.00;;;1.70;;
72406;SDS011;60396;47.550;18.828;2023-02-01T06:58:54;4.03;;;1.20;;
72406;SDS011;60396;47.550;18.828;2023-02-01T07:01:22;4.75;;;1.35;;
72406;SDS011;60396;47.550;18.828;2023-02-01T07:03:50;5.00;;;1.45;;
72406;SDS011;60396;47.550;18.828;2023-02-01T07:06:18;6.60;;;1.50;;
72406;SDS011;60396;47.550;18.828;2023-02-01T07:08:46;5.68;;;1.30;;
72406;SDS011;60396;47.550;18.828;2023-02-01T07:11:14;5.62;;;1.55;;
72406;SDS011;60396;47.550;18.828;2023-02-01T07:13:43;5.18;;;1.15;;
72406;SDS011;60396;47.550;18.828;2023-02-01T07:16:12;5.60;;;1.58;;
72406;SDS011;60396;47.550;18.828;2023-02-01T07:18:41;5.40;;;1.60;;
72406;SDS011;60396;47.550;18.828;2023-02-01T07:21:09;4.43;;;1.25;;
72406;SDS011;60396;47.550;18.828;2023-02-01T07:23:37;5.65;;;1.73;;
72406;SDS011;60396;47.550;18.828;2023-02-01T07:26:05;4.78;;;1.40;;
72406;SDS011;60396;47.550;18.828;2023-02-01T07:28:34;8.65;;;2.05;;
72406;SDS011;60396;47.550;18.828;2023-02-01T07:31:03;6.00;;;2.07;;
72406;SDS011;60396;47.550;18.828;2023-02-01T07:33:32;6.07;;;1.85;;
72406;SDS011;60396;47.550;18.828;2023-02-01T07:36:04;5.82;;;1.55;;
72406;SDS011;60396;47.550;18.828;2023-02-01T07:38:33;4.93;;;1.30;;
72406;SDS011;60396;47.550;18.828;2023-02-01T07:41:02;6.25;;;1.75;;
72406;SDS011;60396;47.550;18.828;2023-02-01T07:43:31;6.20;;;1.90;;
72406;SDS011;60396;47.550;18.828;2023-02-01T07:46:00;5.47;;;1.58;;
72406;SDS011;60396;47.550;18.828;2023-02-01T07:48:29;5.18;;;1.30;;
72406;SDS011;60396;47.550;18.828;2023-02-01T07:51:02;5.68;;;1.65;;
72406;SDS011;60396;47.550;18.828;2023-02-01T07:53:31;6.03;;;1.70;;
72406;SDS011;60396;47.550;18.828;2023-02-01T07:55:59;5.50;;;1.90;;
72406;SDS011;60396;47.550;18.828;2023-02-01T07:58:27;5.43;;;1.62;;
72406;SDS011;60396;47.550;18.828;2023-02-01T08:00:55;4.45;;;1.45;;
72406;SDS011;60396;47.550;18.828;2023-02-01T08:03:42;5.03;;;1.65;;
72406;SDS011;60396;47.550;18.828;2023-02-01T08:06:10;4.53;;;1.45;;
72406;SDS011;60396;47.550;18.828;2023-02-01T08:08:37;7.23;;;2.13;;
72406;SDS011;60396;47.550;18.828;2023-02-01T08:11:06;6.72;;;1.80;;
72406;SDS011;60396;47.550;18.828;2023-02-01T08:13:34;7.90;;;2.03;;
72406;SDS011;60396;47.550;18.828;2023-02-01T08:16:03;6.97;;;2.00;;
72406;SDS011;60396;47.550;18.828;2023-02-01T08:18:33;8.45;;;2.58;;
72406;SDS011;60396;47.550;18.828;2023-02-01T08:23:40;7.80;;;3.00;;
72406;SDS011;60396;47.550;18.828;2023-02-01T08:26:16;7.95;;;2.08;;
72406;SDS011;60396;47.550;18.828;2023-02-01T08:28:53;7.10;;;2.17;;
72406;SDS011;60396;47.550;18.828;2023-02-01T08:31:23;7.32;;;2.03;;
72406;SDS011;60396;47.550;18.828;2023-02-01T08:33:56;5.17;;;1.73;;
72406;SDS011;60396;47.550;18.828;2023-02-01T08:36:26;9.95;;;2.17;;
72406;SDS011;60396;47.550;18.828;2023-02-01T08:38:55;6.12;;;2.00;;
72406;SDS011;60396;47.550;18.828;2023-02-01T08:41:24;6.43;;;2.08;;
72406;SDS011;60396;47.550;18.828;2023-02-01T08:43:53;6.82;;;2.42;;
72406;SDS011;60396;47.550;18.828;2023-02-01T08:46:22;5.70;;;2.03;;
72406;SDS011;60396;47.550;18.828;2023-02-01T08:48:51;6.60;;;2.35;;
72406;SDS011;60396;47.550;18.828;2023-02-01T08:51:20;6.72;;;2.17;;
72406;SDS011;60396;47.550;18.828;2023-02-01T08:53:49;5.25;;;1.92;;
72406;SDS011;60396;47.550;18.828;2023-02-01T08:56:17;7.43;;;2.10;;
72406;SDS011;60396;47.550;18.828;2023-02-01T08:58:45;7.30;;;1.93;;
72406;SDS011;60396;47.550;18.828;2023-02-01T09:01:14;6.82;;;1.80;;
72406;SDS011;60396;47.550;18.828;2023-02-01T09:03:42;8.88;;;2.70;;
72406;SDS011;60396;47.550;18.828;2023-02-01T09:06:11;8.30;;;2.35;;
72406;SDS011;60396;47.550;18.828;2023-02-01T09:08:40;9.57;;;2.58;;
72406;SDS011;60396;47.550;18.828;2023-02-01T09:11:10;9.87;;;2.87;;
72406;SDS011;60396;47.550;18.828;2023-02-01T09:13:40;13.25;;;2.87;;
72406;SDS011;60396;47.550;18.828;2023-02-01T09:16:09;8.02;;;2.70;;
72406;SDS011;60396;47.550;18.828;2023-02-01T09:18:36;9.13;;;2.95;;
72406;SDS011;60396;47.550;18.828;2023-02-01T09:21:22;10.75;;;3.17;;
72406;SDS011;60396;47.550;18.828;2023-02-01T09:23:50;7.93;;;2.80;;
72406;SDS011;60396;47.550;18.828;2023-02-01T09:26:18;7.45;;;2.33;;
72406;SDS011;60396;47.550;18.828;2023-02-01T09:28:57;8.50;;;2.33;;
72406;SDS011;60396;47.550;18.828;2023-02-01T09:31:26;6.80;;;2.50;;
72406;SDS011;60396;47.550;18.828;2023-02-01T09:33:54;5.47;;;2.08;;
72406;SDS011;60396;47.550;18.828;2023-02-01T09:36:22;7.40;;;2.33;;
72406;SDS011;60396;47.550;18.828;2023-02-01T09:38:50;6.28;;;2.30;;
72406;SDS011;60396;47.550;18.828;2023-02-01T09:41:30;8.07;;;3.00;;
72406;SDS011;60396;47.550;18.828;2023-02-01T09:44:14;9.10;;;2.70;;
72406;SDS011;60396;47.550;18.828;2023-02-01T09:47:01;7.03;;;2.90;;
72406;SDS011;60396;47.550;18.828;2023-02-01T09:49:30;9.10;;;3.00;;
72406;SDS011;60396;47.550;18.828;2023-02-01T09:52:00;8.38;;;2.78;;
72406;SDS011;60396;47.550;18.828;2023-02-01T09:54:40;7.72;;;2.85;;
72406;SDS011;60396;47.550;18.828;2023-02-01T09:57:16;7.05;;;2.50;;
72406;SDS011;60396;47.550;18.828;2023-02-01T09:59:57;7.32;;;2.87;;
72406;SDS011;60396;47.550;18.828;2023-02-01T10:02:38;8.00;;;3.20;;
72406;SDS011;60396;47.550;18.828;2023-02-01T10:05:11;11.45;;;4.20;;
72406;SDS011;60396;47.550;18.828;2023-02-01T10:08:03;7.65;;;3.05;;
72406;SDS011;60396;47.550;18.828;2023-02-01T10:13:09;11.18;;;3.12;;
72406;SDS011;60396;47.550;18.828;2023-02-01T10:16:01;8.57;;;3.10;;
72406;SDS011;60396;47.550;18.828;2023-02-01T10:21:26;7.75;;;2.95;;
72406;SDS011;60396;47.550;18.828;2023-02-01T10:24:10;7.20;;;2.95;;
72406;SDS011;60396;47.550;18.828;2023-02-01T10:27:30;9.23;;;3.00;;
72406;SDS011;60396;47.550;18.828;2023-02-01T10:29:43;8.23;;;2.97;;
72406;SDS011;60396;47.550;18.828;2023-02-01T10:32:14;6.70;;;2.55;;
72406;SDS011;60396;47.550;18.828;2023-02-01T10:34:46;6.72;;;2.85;;
72406;SDS011;60396;47.550;18.828;2023-02-01T10:39:48;8.93;;;2.95;;
72406;SDS011;60396;47.550;18.828;2023-02-01T10:42:17;8.23;;;3.13;;
72406;SDS011;60396;47.550;18.828;2023-02-01T10:44:46;9.90;;;2.95;;
72406;SDS011;60396;47.550;18.828;2023-02-01T10:47:15;8.05;;;3.15;;
72406;SDS011;60396;47.550;18.828;2023-02-01T10:52:38;8.73;;;2.78;;
72406;SDS011;60396;47.550;18.828;2023-02-01T10:55:28;8.17;;;2.63;;
72406;SDS011;60396;47.550;18.828;2023-02-01T10:57:59;7.37;;;2.97;;
72406;SDS011;60396;47.550;18.828;2023-02-01T11:00:37;7.82;;;3.33;;
72406;SDS011;60396;47.550;18.828;2023-02-01T11:05:55;8.85;;;3.25;;
72406;SDS011;60396;47.550;18.828;2023-02-01T11:08:22;9.67;;;3.80;;
72406;SDS011;60396;47.550;18.828;2023-02-01T11:11:08;8.77;;;3.80;;
72406;SDS011;60396;47.550;18.828;2023-02-01T11:13:39;10.35;;;4.05;;
72406;SDS011;60396;47.550;18.828;2023-02-01T11:16:11;6.93;;;2.92;;
72406;SDS011;60396;47.550;18.828;2023-02-01T11:18:41;9.52;;;4.53;;
72406;SDS011;60396;47.550;18.828;2023-02-01T11:21:09;7.87;;;3.80;;
72406;SDS011;60396;47.550;18.828;2023-02-01T11:23:44;8.45;;;3.78;;
72406;SDS011;60396;47.550;18.828;2023-02-01T11:26:14;15.65;;;5.75;;
72406;SDS011;60396;47.550;18.828;2023-02-01T11:28:50;11.93;;;4.53;;
72406;SDS011;60396;47.550;18.828;2023-02-01T11:31:21;9.57;;;4.10;;
72406;SDS011;60396;47.550;18.828;2023-02-01T11:33:53;13.13;;;4.10;;
72406;SDS011;60396;47.550;18.828;2023-02-01T11:36:42;12.30;;;4.35;;
72406;SDS011;60396;47.550;18.828;2023-02-01T11:41:44;9.52;;;4.12;;
72406;SDS011;60396;47.550;18.828;2023-02-01T11:49:56;8.52;;;3.70;;
72406;SDS011;60396;47.550;18.828;2023-02-01T11:52:42;12.48;;;4.70;;
72406;SDS011;60396;47.550;18.828;2023-02-01T12:06:11;8.27;;;3.00;;
72406;SDS011;60396;47.550;18.828;2023-02-01T12:29:31;7.83;;;2.63;;
72406;SDS011;60396;47.550;18.828;2023-02-01T12:37:34;10.80;;;3.28;;
72406;SDS011;60396;47.550;18.828;2023-02-01T12:43:12;8.57;;;3.33;;
72406;SDS011;60396;47.550;18.828;2023-02-01T12:48:34;9.75;;;2.60;;
72406;SDS011;60396;47.550;18.828;2023-02-01T12:51:05;44.20;;;15.45;;
72406;SDS011;60396;47.550;18.828;2023-02-01T12:53:38;109.03;;;38.30;;
72406;SDS011;60396;47.550;18.828;2023-02-01T12:56:16;77.00;;;25.97;;
72406;SDS011;60396;47.550;18.828;2023-02-01T12:58:53;83.72;;;32.13;;
72406;SDS011;60396;47.550;18.828;2023-02-01T13:01:25;106.25;;;29.08;;
72406;SDS011;60396;47.550;18.828;2023-02-01T13:04:18;93.60;;;42.88;;
72406;SDS011;60396;47.550;18.828;2023-02-01T13:07:06;21.35;;;15.80;;
72406;SDS011;60396;47.550;18.828;2023-02-01T13:09:43;11.23;;;5.17;;
72406;SDS011;60396;47.550;18.828;2023-02-01T13:12:16;38.80;;;19.92;;
72406;SDS011;60396;47.550;18.828;2023-02-01T13:17:44;13.98;;;7.85;;
72406;SDS011;60396;47.550;18.828;2023-02-01T13:20:19;9.50;;;3.33;;
72406;SDS011;60396;47.550;18.828;2023-02-01T13:23:05;11.30;;;4.90;;
72406;SDS011;60396;47.550;18.828;2023-02-01T13:25:44;12.52;;;4.05;;
72406;SDS011;60396;47.550;18.828;2023-02-01T13:28:20;10.88;;;3.97;;
72406;SDS011;60396;47.550;18.828;2023-02-01T13:42:25;11.75;;;5.43;;
72406;SDS011;60396;47.550;18.828;2023-02-01T13:44:56;32.95;;;15.25;;
72406;SDS011;60396;47.550;18.828;2023-02-01T13:49:57;10.93;;;5.00;;
72406;SDS011;60396;47.550;18.828;2023-02-01T13:55:14;12.77;;;4.72;;
72406;SDS011;60396;47.550;18.828;2023-02-01T13:57:50;10.18;;;3.40;;
72406;SDS011;60396;47.550;18.828;2023-02-01T14:00:30;9.98;;;3.15;;
72406;SDS011;60396;47.550;18.828;2023-02-01T14:03:11;7.30;;;2.90;;
72406;SDS011;60396;47.550;18.828;2023-02-01T14:08:12;7.07;;;2.25;;
72406;SDS011;60396;47.550;18.828;2023-02-01T14:23:57;10.02;;;5.30;;
72406;SDS011;60396;47.550;18.828;2023-02-01T14:26:26;8.98;;;3.60;;
72406;SDS011;60396;47.550;18.828;2023-02-01T14:32:11;8.32;;;2.12;;
72406;SDS011;60396;47.550;18.828;2023-02-01T14:42:24;9.90;;;2.10;;
72406;SDS011;60396;47.550;18.828;2023-02-01T14:47:46;5.90;;;1.10;;
72406;SDS011;60396;47.550;18.828;2023-02-01T14:50:21;5.57;;;1.00;;
72406;SDS011;60396;47.550;18.828;2023-02-01T15:01:32;4.50;;;0.62;;
72406;SDS011;60396;47.550;18.828;2023-02-01T15:04:05;6.47;;;0.75;;
72406;SDS011;60396;47.550;18.828;2023-02-01T15:06:39;3.53;;;0.70;;
72406;SDS011;60396;47.550;18.828;2023-02-01T15:09:17;2.93;;;0.70;;
72406;SDS011;60396;47.550;18.828;2023-02-01T15:14:33;8.38;;;1.50;;
72406;SDS011;60396;47.550;18.828;2023-02-01T15:19:54;6.40;;;1.25;;
72406;SDS011;60396;47.550;18.828;2023-02-01T15:22:31;5.13;;;1.10;;
72406;SDS011;60396;47.550;18.828;2023-02-01T15:25:00;4.55;;;0.90;;
72406;SDS011;60396;47.550;18.828;2023-02-01T15:27:28;4.57;;;0.80;;
72406;SDS011;60396;47.550;18.828;2023-02-01T15:30:06;5.43;;;1.05;;
72406;SDS011;60396;47.550;18.828;2023-02-01T15:32:38;4.40;;;1.25;;
72406;SDS011;60396;47.550;18.828;2023-02-01T15:43:31;4.65;;;1.37;;
72406;SDS011;60396;47.550;18.828;2023-02-01T15:46:01;6.78;;;1.80;;
72406;SDS011;60396;47.550;18.828;2023-02-01T15:48:35;7.57;;;2.70;;
72406;SDS011;60396;47.550;18.828;2023-02-01T15:51:19;8.75;;;2.17;;
72406;SDS011;60396;47.550;18.828;2023-02-01T15:53:56;11.43;;;1.70;;
72406;SDS011;60396;47.550;18.828;2023-02-01T15:56:28;5.80;;;1.40;;
72406;SDS011;60396;47.550;18.828;2023-02-01T15:59:02;3.47;;;0.60;;
72406;SDS011;60396;47.550;18.828;2023-02-01T16:01:36;3.87;;;0.70;;
72406;SDS011;60396;47.550;18.828;2023-02-01T16:06:49;3.25;;;0.60;;
72406;SDS011;60396;47.550;18.828;2023-02-01T16:09:20;3.53;;;0.65;;
72406;SDS011;60396;47.550;18.828;2023-02-01T16:11:59;3.72;;;0.70;;
72406;SDS011;60396;47.550;18.828;2023-02-01T16:14:28;4.47;;;0.50;;
72406;SDS011;60396;47.550;18.828;2023-02-01T16:16:57;5.05;;;0.68;;
72406;SDS011;60396;47.550;18.828;2023-02-01T16:19:25;6.93;;;1.40;;
72406;SDS011;60396;47.550;18.828;2023-02-01T16:21:55;8.25;;;1.87;;
72406;SDS011;60396;47.550;18.828;2023-02-01T16:24:23;6.00;;;1.60;;
72406;SDS011;60396;47.550;18.828;2023-02-01T16:26:53;3.97;;;0.93;;
72406;SDS011;60396;47.550;18.828;2023-02-01T16:29:21;5.40;;;1.37;;
72406;SDS011;60396;47.550;18.828;2023-02-01T16:31:49;4.35;;;1.00;;
72406;SDS011;60396;47.550;18.828;2023-02-01T16:34:17;5.90;;;1.60;;
72406;SDS011;60396;47.550;18.828;2023-02-01T16:36:49;8.35;;;2.92;;
72406;SDS011;60396;47.550;18.828;2023-02-01T16:39:22;9.47;;;2.50;;
72406;SDS011;60396;47.550;18.828;2023-02-01T16:41:51;5.18;;;1.33;;
72406;SDS011;60396;47.550;18.828;2023-02-01T16:44:18;9.18;;;1.70;;
72406;SDS011;60396;47.550;18.828;2023-02-01T16:46:46;8.95;;;3.05;;
72406;SDS011;60396;47.550;18.828;2023-02-01T16:49:24;7.82;;;1.90;;
72406;SDS011;60396;47.550;18.828;2023-02-01T16:51:55;7.60;;;1.80;;
72406;SDS011;60396;47.550;18.828;2023-02-01T16:54:24;6.72;;;1.90;;
72406;SDS011;60396;47.550;18.828;2023-02-01T16:56:53;6.82;;;1.65;;
72406;SDS011;60396;47.550;18.828;2023-02-01T16:59:21;6.95;;;1.40;;
72406;SDS011;60396;47.550;18.828;2023-02-01T17:01:49;5.87;;;1.67;;
72406;SDS011;60396;47.550;18.828;2023-02-01T17:04:17;7.27;;;1.47;;
72406;SDS011;60396;47.550;18.828;2023-02-01T17:06:48;7.97;;;1.80;;
72406;SDS011;60396;47.550;18.828;2023-02-01T17:09:16;7.82;;;1.73;;
72406;SDS011;60396;47.550;18.828;2023-02-01T17:11:44;5.95;;;1.55;;
72406;SDS011;60396;47.550;18.828;2023-02-01T17:14:18;5.60;;;1.77;;
72406;SDS011;60396;47.550;18.828;2023-02-01T17:16:47;7.90;;;1.97;;
72406;SDS011;60396;47.550;18.828;2023-02-01T17:19:17;10.02;;;2.45;;
72406;SDS011;60396;47.550;18.828;2023-02-01T17:21:54;10.00;;;2.17;;
72406;SDS011;60396;47.550;18.828;2023-02-01T17:24:27;11.23;;;2.45;;
72406;SDS011;60396;47.550;18.828;2023-02-01T17:27:13;8.80;;;1.90;;
72406;SDS011;60396;47.550;18.828;2023-02-01T17:29:42;11.63;;;2.73;;
72406;SDS011;60396;47.550;18.828;2023-02-01T17:32:15;11.73;;;2.12;;
72406;SDS011;60396;47.550;18.828;2023-02-01T17:34:46;8.55;;;2.40;;
72406;SDS011;60396;47.550;18.828;2023-02-01T17:37:34;8.48;;;2.90;;
72406;SDS011;60396;47.550;18.828;2023-02-01T17:40:04;9.50;;;3.50;;
72406;SDS011;60396;47.550;18.828;2023-02-01T17:42:32;16.23;;;5.60;;
72406;SDS011;60396;47.550;18.828;2023-02-01T17:45:01;7.62;;;2.70;;
72406;SDS011;60396;47.550;18.828;2023-02-01T17:47:38;7.18;;;2.33;;
72406;SDS011;60396;47.550;18.828;2023-02-01T17:50:06;6.72;;;2.10;;
72406;SDS011;60396;47.550;18.828;2023-02-01T17:52:34;7.32;;;2.12;;
72406;SDS011;60396;47.550;18.828;2023-02-01T17:55:08;9.20;;;2.10;;
72406;SDS011;60396;47.550;18.828;2023-02-01T17:57:48;5.32;;;1.23;;
72406;SDS011;60396;47.550;18.828;2023-02-01T18:00:17;4.25;;;1.10;;